sensor_id;sensor_type;location;lat;lon;timestamp;temperature;humidity
23079;DHT22;11707;50.830;4.364;2022-10-31T00:03:47;15.30;99.90
23079;DHT22;11707;50.830;4.364;2022-10-31T00:06:14;15.10;99.90
23079;DHT22;11707;50.830;4.364;2022-10-31T00:08:39;15.10;99.90
23079;DHT22;11707;50.830;4.364;2022-10-31T00:11:09;15.20;99.90
23079;DHT22;11707;50.830;4.364;2022-10-31T00:13:35;15.30;99.90
23079;DHT22;11707;50.830;4.364;2022-10-31T00:16:00;15.30;99.90
23079;DHT22;11707;50.830;4.364;2022-10-31T00:18:26;15.30;99.90
23079;DHT22;11707;50.830;4.364;2022-10-31T00:20:59;15.40;99.90
23079;DHT22;11707;50.830;4.364;2022-10-31T00:23:25;15.40;99.90
23079;DHT22;11707;50.830;4.364;2022-10-31T00:25:51;15.60;99.90
23079;DHT22;11707;50.830;4.364;2022-10-31T00:28:16;15.40;99.90
23079;DHT22;11707;50.830;4.364;2022-10-31T00:30:42;15.10;99.90
23079;DHT22;11707;50.830;4.364;2022-10-31T00:33:08;15.00;99.90
23079;DHT22;11707;50.830;4.364;2022-10-31T00:35:33;14.90;99.90
23079;DHT22;11707;50.830;4.364;2022-10-31T00:37:59;14.90;99.90
23079;DHT22;11707;50.830;4.364;2022-10-31T00:40:25;14.70;99.90
23079;DHT22;11707;50.830;4.364;2022-10-31T00:42:50;14.70;99.90
23079;DHT22;11707;50.830;4.364;2022-10-31T00:45:16;14.70;99.90
23079;DHT22;11707;50.830;4.364;2022-10-31T00:47:42;14.60;99.90
23079;DHT22;11707;50.830;4.364;2022-10-31T00:50:08;14.50;99.90
23079;DHT22;11707;50.830;4.364;2022-10-31T00:52:34;14.50;99.90
23079;DHT22;11707;50.830;4.364;2022-10-31T00:54:59;14.50;99.90
23079;DHT22;11707;50.830;4.364;2022-10-31T00:57:25;14.50;99.90
23079;DHT22;11707;50.830;4.364;2022-10-31T00:59:50;14.50;99.90
23079;DHT22;11707;50.830;4.364;2022-10-31T01:02:16;14.40;99.90
23079;DHT22;11707;50.830;4.364;2022-10-31T01:04:42;14.40;99.90
23079;DHT22;11707;50.830;4.364;2022-10-31T01:07:07;14.40;99.90
23079;DHT22;11707;50.830;4.364;2022-10-31T01:09:33;14.40;99.90
23079;DHT22;11707;50.830;4.364;2022-10-31T01:11:59;14.40;99.90
23079;DHT22;11707;50.830;4.364;2022-10-31T01:14:24;14.40;99.90
23079;DHT22;11707;50.830;4.364;2022-10-31T01:16:50;14.40;99.90
23079;DHT22;11707;50.830;4.364;2022-10-31T01:19:16;14.30;99.90
23079;DHT22;11707;50.830;4.364;2022-10-31T01:21:41;14.30;99.90
23079;DHT22;11707;50.830;4.364;2022-10-31T01:24:08;14.30;99.90
23079;DHT22;11707;50.830;4.364;2022-10-31T01:26:34;14.30;99.90
23079;DHT22;11707;50.830;4.364;2022-10-31T01:29:03;14.30;99.90
23079;DHT22;11707;50.830;4.364;2022-10-31T01:31:32;14.30;99.90
23079;DHT22;11707;50.830;4.364;2022-10-31T01:33:58;14.30;99.90
23079;DHT22;11707;50.830;4.364;2022-10-31T01:36:30;14.30;99.90
23079;DHT22;11707;50.830;4.364;2022-10-31T01:38:58;14.30;99.90
23079;DHT22;11707;50.830;4.364;2022-10-31T01:41:27;14.20;99.90
23079;DHT22;11707;50.830;4.364;2022-10-31T01:46:33;14.40;99.90
23079;DHT22;11707;50.830;4.364;2022-10-31T01:49:04;14.40;99.90
23079;DHT22;11707;50.830;4.364;2022-10-31T01:51:34;14.40;99.90
23079;DHT22;11707;50.830;4.364;2022-10-31T01:54:08;14.40;99.90
23079;DHT22;11707;50.830;4.364;2022-10-31T01:56:38;14.50;99.90
23079;DHT22;11707;50.830;4.364;2022-10-31T01:59:08;14.40;99.90
23079;DHT22;11707;50.830;4.364;2022-10-31T02:01:35;14.30;99.90
23079;DHT22;11707;50.830;4.364;2022-10-31T02:04:01;14.30;99.90
23079;DHT22;11707;50.830;4.364;2022-10-31T02:07:03;14.20;99.90
23079;DHT22;11707;50.830;4.364;2022-10-31T02:09:32;14.20;99.90
23079;DHT22;11707;50.830;4.364;2022-10-31T02:11:59;14.20;99.90
23079;DHT22;11707;50.830;4.364;2022-10-31T02:14:28;14.20;99.90
23079;DHT22;11707;50.830;4.364;2022-10-31T02:16:54;14.20;99.90
23079;DHT22;11707;50.830;4.364;2022-10-31T02:19:39;14.10;99.90
23079;DHT22;11707;50.830;4.364;2022-10-31T02:22:11;14.10;99.90
23079;DHT22;11707;50.830;4.364;2022-10-31T02:30:40;14.00;99.90
23079;DHT22;11707;50.830;4.364;2022-10-31T02:33:15;14.10;99.90
23079;DHT22;11707;50.830;4.364;2022-10-31T02:41:26;14.10;99.90
23079;DHT22;11707;50.830;4.364;2022-10-31T02:44:08;14.30;99.90
23079;DHT22;11707;50.830;4.364;2022-10-31T02:49:40;14.30;99.90
23079;DHT22;11707;50.830;4.364;2022-10-31T02:52:20;14.30;99.90
23079;DHT22;11707;50.830;4.364;2022-10-31T02:54:48;14.20;99.90
23079;DHT22;11707;50.830;4.364;2022-10-31T02:57:15;14.10;99.90
23079;DHT22;11707;50.830;4.364;2022-10-31T02:59:48;14.10;99.90
23079;DHT22;11707;50.830;4.364;2022-10-31T03:02:18;14.20;99.90
23079;DHT22;11707;50.830;4.364;2022-10-31T03:05:01;14.20;99.90
23079;DHT22;11707;50.830;4.364;2022-10-31T03:07:30;14.20;99.90
23079;DHT22;11707;50.830;4.364;2022-10-31T03:10:10;14.10;99.90
23079;DHT22;11707;50.830;4.364;2022-10-31T03:12:56;14.10;99.90
23079;DHT22;11707;50.830;4.364;2022-10-31T03:15:33;14.00;99.90
23079;DHT22;11707;50.830;4.364;2022-10-31T03:18:38;14.10;99.90
23079;DHT22;11707;50.830;4.364;2022-10-31T03:21:09;14.00;99.90
23079;DHT22;11707;50.830;4.364;2022-10-31T03:23:37;14.00;99.90
23079;DHT22;11707;50.830;4.364;2022-10-31T03:26:05;14.00;99.90
23079;DHT22;11707;50.830;4.364;2022-10-31T03:31:35;14.00;99.90
23079;DHT22;11707;50.830;4.364;2022-10-31T03:34:02;14.00;99.90
23079;DHT22;11707;50.830;4.364;2022-10-31T03:36:31;13.90;99.90
23079;DHT22;11707;50.830;4.364;2022-10-31T03:38:59;13.80;99.90
23079;DHT22;11707;50.830;4.364;2022-10-31T03:41:30;13.80;99.90
23079;DHT22;11707;50.830;4.364;2022-10-31T03:44:12;13.80;99.90
23079;DHT22;11707;50.830;4.364;2022-10-31T03:46:40;13.90;99.90
23079;DHT22;11707;50.830;4.364;2022-10-31T03:49:06;14.00;99.90
23079;DHT22;11707;50.830;4.364;2022-10-31T03:59:45;14.00;99.90
23079;DHT22;11707;50.830;4.364;2022-10-31T04:02:15;14.00;99.90
23079;DHT22;11707;50.830;4.364;2022-10-31T04:04:43;14.10;99.90
23079;DHT22;11707;50.830;4.364;2022-10-31T04:07:10;14.20;99.90
23079;DHT22;11707;50.830;4.364;2022-10-31T04:09:38;14.20;99.90
23079;DHT22;11707;50.830;4.364;2022-10-31T04:12:07;14.10;99.90
23079;DHT22;11707;50.830;4.364;2022-10-31T04:14:36;13.90;99.90
23079;DHT22;11707;50.830;4.364;2022-10-31T04:17:06;13.80;99.90
23079;DHT22;11707;50.830;4.364;2022-10-31T04:19:33;13.80;99.90
23079;DHT22;11707;50.830;4.364;2022-10-31T04:21:59;13.80;99.90
23079;DHT22;11707;50.830;4.364;2022-10-31T04:24:25;13.80;99.90
23079;DHT22;11707;50.830;4.364;2022-10-31T04:26:51;13.70;99.90
23079;DHT22;11707;50.830;4.364;2022-10-31T04:29:16;13.70;99.90
23079;DHT22;11707;50.830;4.364;2022-10-31T04:31:42;13.90;99.90
23079;DHT22;11707;50.830;4.364;2022-10-31T04:34:08;13.90;99.90
23079;DHT22;11707;50.830;4.364;2022-10-31T04:36:33;13.90;99.90
23079;DHT22;11707;50.830;4.364;2022-10-31T04:38:59;13.80;99.90
23079;DHT22;11707;50.830;4.364;2022-10-31T04:41:25;13.80;99.90
23079;DHT22;11707;50.830;4.364;2022-10-31T04:43:51;13.70;99.90
23079;DHT22;11707;50.830;4.364;2022-10-31T04:46:16;13.70;99.90
23079;DHT22;11707;50.830;4.364;2022-10-31T04:48:42;13.80;99.90
23079;DHT22;11707;50.830;4.364;2022-10-31T04:51:07;13.80;99.90
23079;DHT22;11707;50.830;4.364;2022-10-31T04:53:33;13.70;99.90
23079;DHT22;11707;50.830;4.364;2022-10-31T04:55:59;13.40;99.90
23079;DHT22;11707;50.830;4.364;2022-10-31T04:58:26;13.40;99.90
23079;DHT22;11707;50.830;4.364;2022-10-31T05:00:53;13.50;99.90
23079;DHT22;11707;50.830;4.364;2022-10-31T05:03:18;13.50;99.90
23079;DHT22;11707;50.830;4.364;2022-10-31T05:05:44;13.50;99.90
23079;DHT22;11707;50.830;4.364;2022-10-31T05:08:10;13.60;99.90
23079;DHT22;11707;50.830;4.364;2022-10-31T05:10:36;13.70;99.90
23079;DHT22;11707;50.830;4.364;2022-10-31T05:13:03;13.70;99.90
23079;DHT22;11707;50.830;4.364;2022-10-31T05:15:30;13.80;99.90
23079;DHT22;11707;50.830;4.364;2022-10-31T05:17:56;13.80;99.90
23079;DHT22;11707;50.830;4.364;2022-10-31T05:20:28;13.70;99.90
23079;DHT22;11707;50.830;4.364;2022-10-31T05:22:55;13.70;99.90
23079;DHT22;11707;50.830;4.364;2022-10-31T05:25:24;13.70;99.90
23079;DHT22;11707;50.830;4.364;2022-10-31T05:27:52;13.70;99.90
23079;DHT22;11707;50.830;4.364;2022-10-31T05:30:24;13.80;99.90
23079;DHT22;11707;50.830;4.364;2022-10-31T05:32:50;13.70;99.90
23079;DHT22;11707;50.830;4.364;2022-10-31T05:35:22;13.70;99.90
23079;DHT22;11707;50.830;4.364;2022-10-31T05:37:48;13.90;99.90
23079;DHT22;11707;50.830;4.364;2022-10-31T05:40:16;13.60;99.90
23079;DHT22;11707;50.830;4.364;2022-10-31T05:42:42;13.60;99.90
23079;DHT22;11707;50.830;4.364;2022-10-31T05:45:10;13.70;99.90
23079;DHT22;11707;50.830;4.364;2022-10-31T05:47:36;13.80;99.90
23079;DHT22;11707;50.830;4.364;2022-10-31T05:50:01;13.80;99.90
23079;DHT22;11707;50.830;4.364;2022-10-31T05:52:27;13.90;99.90
23079;DHT22;11707;50.830;4.364;2022-10-31T05:54:53;13.80;99.90
23079;DHT22;11707;50.830;4.364;2022-10-31T05:57:18;13.60;99.90
23079;DHT22;11707;50.830;4.364;2022-10-31T05:59:44;13.70;99.90
23079;DHT22;11707;50.830;4.364;2022-10-31T06:02:10;13.70;99.90
23079;DHT22;11707;50.830;4.364;2022-10-31T06:04:35;13.60;99.90
23079;DHT22;11707;50.830;4.364;2022-10-31T06:07:01;13.50;99.90
23079;DHT22;11707;50.830;4.364;2022-10-31T06:09:27;13.50;99.90
23079;DHT22;11707;50.830;4.364;2022-10-31T06:11:52;13.60;99.90
23079;DHT22;11707;50.830;4.364;2022-10-31T06:14:18;13.60;99.90
23079;DHT22;11707;50.830;4.364;2022-10-31T06:16:44;13.70;99.90
23079;DHT22;11707;50.830;4.364;2022-10-31T06:19:09;13.70;99.90
23079;DHT22;11707;50.830;4.364;2022-10-31T06:21:35;13.60;99.90
23079;DHT22;11707;50.830;4.364;2022-10-31T06:24:01;13.70;99.90
23079;DHT22;11707;50.830;4.364;2022-10-31T06:26:26;13.90;99.90
23079;DHT22;11707;50.830;4.364;2022-10-31T06:28:52;13.90;99.90
23079;DHT22;11707;50.830;4.364;2022-10-31T06:31:18;14.00;99.90
23079;DHT22;11707;50.830;4.364;2022-10-31T06:33:44;14.00;99.90
23079;DHT22;11707;50.830;4.364;2022-10-31T06:36:10;14.20;99.90
23079;DHT22;11707;50.830;4.364;2022-10-31T06:38:35;14.10;99.90
23079;DHT22;11707;50.830;4.364;2022-10-31T06:41:03;14.20;99.90
23079;DHT22;11707;50.830;4.364;2022-10-31T06:43:29;14.20;99.90
23079;DHT22;11707;50.830;4.364;2022-10-31T06:45:55;14.20;99.90
23079;DHT22;11707;50.830;4.364;2022-10-31T06:48:21;14.20;99.90
23079;DHT22;11707;50.830;4.364;2022-10-31T06:50:47;14.10;99.90
23079;DHT22;11707;50.830;4.364;2022-10-31T06:53:12;14.30;99.90
23079;DHT22;11707;50.830;4.364;2022-10-31T06:55:40;14.40;99.90
23079;DHT22;11707;50.830;4.364;2022-10-31T06:58:06;14.30;99.90
23079;DHT22;11707;50.830;4.364;2022-10-31T07:00:32;14.20;99.90
23079;DHT22;11707;50.830;4.364;2022-10-31T07:03:05;14.30;99.90
23079;DHT22;11707;50.830;4.364;2022-10-31T07:05:31;14.10;99.90
23079;DHT22;11707;50.830;4.364;2022-10-31T07:07:59;14.10;99.90
23079;DHT22;11707;50.830;4.364;2022-10-31T07:10:27;14.00;99.90
23079;DHT22;11707;50.830;4.364;2022-10-31T07:12:57;13.90;99.90
23079;DHT22;11707;50.830;4.364;2022-10-31T07:15:24;14.00;99.90
23079;DHT22;11707;50.830;4.364;2022-10-31T07:17:50;14.00;99.90
23079;DHT22;11707;50.830;4.364;2022-10-31T07:20:16;13.90;99.90
23079;DHT22;11707;50.830;4.364;2022-10-31T07:22:42;14.00;99.90
23079;DHT22;11707;50.830;4.364;2022-10-31T07:25:08;14.10;99.90
23079;DHT22;11707;50.830;4.364;2022-10-31T07:27:38;14.00;99.90
23079;DHT22;11707;50.830;4.364;2022-10-31T07:30:05;14.10;99.90
23079;DHT22;11707;50.830;4.364;2022-10-31T07:32:50;14.30;99.90
23079;DHT22;11707;50.830;4.364;2022-10-31T07:35:18;14.30;99.90
23079;DHT22;11707;50.830;4.364;2022-10-31T07:37:43;14.20;99.90
23079;DHT22;11707;50.830;4.364;2022-10-31T07:40:10;14.40;99.90
23079;DHT22;11707;50.830;4.364;2022-10-31T07:42:43;14.40;99.90
23079;DHT22;11707;50.830;4.364;2022-10-31T07:45:11;14.50;99.90
23079;DHT22;11707;50.830;4.364;2022-10-31T07:50:11;14.50;99.90
23079;DHT22;11707;50.830;4.364;2022-10-31T07:52:37;14.50;99.90
23079;DHT22;11707;50.830;4.364;2022-10-31T07:55:04;14.20;99.90
23079;DHT22;11707;50.830;4.364;2022-10-31T07:57:30;14.10;99.90
23079;DHT22;11707;50.830;4.364;2022-10-31T07:59:56;14.30;99.90
23079;DHT22;11707;50.830;4.364;2022-10-31T08:02:21;14.20;99.90
23079;DHT22;11707;50.830;4.364;2022-10-31T08:04:47;14.30;99.90
23079;DHT22;11707;50.830;4.364;2022-10-31T08:07:13;14.30;99.90
23079;DHT22;11707;50.830;4.364;2022-10-31T08:09:39;14.30;99.90
23079;DHT22;11707;50.830;4.364;2022-10-31T08:12:04;14.50;99.90
23079;DHT22;11707;50.830;4.364;2022-10-31T08:14:30;14.60;99.90
23079;DHT22;11707;50.830;4.364;2022-10-31T08:16:56;14.80;99.90
23079;DHT22;11707;50.830;4.364;2022-10-31T08:19:22;14.70;99.90
23079;DHT22;11707;50.830;4.364;2022-10-31T08:21:50;14.70;99.90
23079;DHT22;11707;50.830;4.364;2022-10-31T08:24:17;14.60;99.90
23079;DHT22;11707;50.830;4.364;2022-10-31T08:26:43;14.70;99.90
23079;DHT22;11707;50.830;4.364;2022-10-31T08:29:08;14.80;99.90
23079;DHT22;11707;50.830;4.364;2022-10-31T08:31:34;14.70;99.90
23079;DHT22;11707;50.830;4.364;2022-10-31T08:34:00;14.70;99.90
23079;DHT22;11707;50.830;4.364;2022-10-31T08:36:27;14.90;99.90
23079;DHT22;11707;50.830;4.364;2022-10-31T08:38:54;14.90;99.90
23079;DHT22;11707;50.830;4.364;2022-10-31T08:41:20;15.10;99.90
23079;DHT22;11707;50.830;4.364;2022-10-31T08:43:46;14.90;99.90
23079;DHT22;11707;50.830;4.364;2022-10-31T08:46:12;14.90;99.90
23079;DHT22;11707;50.830;4.364;2022-10-31T08:48:38;15.00;99.90
23079;DHT22;11707;50.830;4.364;2022-10-31T08:51:04;15.20;99.90
23079;DHT22;11707;50.830;4.364;2022-10-31T08:53:30;15.20;99.90
23079;DHT22;11707;50.830;4.364;2022-10-31T08:55:56;15.10;99.90
23079;DHT22;11707;50.830;4.364;2022-10-31T08:58:23;15.10;99.90
23079;DHT22;11707;50.830;4.364;2022-10-31T09:00:52;15.20;99.90
23079;DHT22;11707;50.830;4.364;2022-10-31T09:03:26;15.40;99.90
23079;DHT22;11707;50.830;4.364;2022-10-31T09:05:56;15.40;99.90
23079;DHT22;11707;50.830;4.364;2022-10-31T09:08:22;15.40;99.90
23079;DHT22;11707;50.830;4.364;2022-10-31T09:10:48;15.40;99.90
23079;DHT22;11707;50.830;4.364;2022-10-31T09:13:17;15.40;99.90
23079;DHT22;11707;50.830;4.364;2022-10-31T09:15:45;15.30;99.90
23079;DHT22;11707;50.830;4.364;2022-10-31T09:18:13;15.30;99.90
23079;DHT22;11707;50.830;4.364;2022-10-31T09:20:40;15.20;99.90
23079;DHT22;11707;50.830;4.364;2022-10-31T09:23:11;15.10;99.90
23079;DHT22;11707;50.830;4.364;2022-10-31T09:25:39;15.10;99.90
23079;DHT22;11707;50.830;4.364;2022-10-31T09:28:07;15.10;99.90
23079;DHT22;11707;50.830;4.364;2022-10-31T09:30:35;15.10;99.90
23079;DHT22;11707;50.830;4.364;2022-10-31T09:33:03;15.20;99.90
23079;DHT22;11707;50.830;4.364;2022-10-31T09:35:29;15.30;99.90
23079;DHT22;11707;50.830;4.364;2022-10-31T09:38:05;15.40;99.90
23079;DHT22;11707;50.830;4.364;2022-10-31T09:40:35;15.60;99.90
23079;DHT22;11707;50.830;4.364;2022-10-31T09:43:14;15.50;99.90
23079;DHT22;11707;50.830;4.364;2022-10-31T09:51:15;15.50;99.90
23079;DHT22;11707;50.830;4.364;2022-10-31T09:53:44;15.50;99.90
23079;DHT22;11707;50.830;4.364;2022-10-31T09:56:14;15.40;99.90
23079;DHT22;11707;50.830;4.364;2022-10-31T09:58:53;15.50;99.90
23079;DHT22;11707;50.830;4.364;2022-10-31T10:06:56;15.70;99.90
23079;DHT22;11707;50.830;4.364;2022-10-31T10:09:25;15.70;99.90
23079;DHT22;11707;50.830;4.364;2022-10-31T10:12:15;15.70;99.90
23079;DHT22;11707;50.830;4.364;2022-10-31T10:14:51;15.50;99.90
23079;DHT22;11707;50.830;4.364;2022-10-31T10:20:18;15.70;99.90
23079;DHT22;11707;50.830;4.364;2022-10-31T10:23:23;15.80;99.90
23079;DHT22;11707;50.830;4.364;2022-10-31T10:26:04;15.90;99.90
23079;DHT22;11707;50.830;4.364;2022-10-31T10:28:37;16.20;99.90
23079;DHT22;11707;50.830;4.364;2022-10-31T10:34:10;16.30;99.90
23079;DHT22;11707;50.830;4.364;2022-10-31T10:36:43;15.90;99.90
23079;DHT22;11707;50.830;4.364;2022-10-31T10:39:26;15.80;99.90
23079;DHT22;11707;50.830;4.364;2022-10-31T10:41:55;16.00;99.90
23079;DHT22;11707;50.830;4.364;2022-10-31T10:44:45;16.00;99.90
23079;DHT22;11707;50.830;4.364;2022-10-31T10:47:43;16.10;99.90
23079;DHT22;11707;50.830;4.364;2022-10-31T10:50:18;16.30;99.90
23079;DHT22;11707;50.830;4.364;2022-10-31T10:52:57;16.40;99.90
23079;DHT22;11707;50.830;4.364;2022-10-31T10:55:36;16.30;99.90
23079;DHT22;11707;50.830;4.364;2022-10-31T10:58:07;16.10;99.90
23079;DHT22;11707;50.830;4.364;2022-10-31T11:00:43;16.10;99.90
23079;DHT22;11707;50.830;4.364;2022-10-31T11:03:12;16.20;99.90
23079;DHT22;11707;50.830;4.364;2022-10-31T11:08:29;16.30;99.90
23079;DHT22;11707;50.830;4.364;2022-10-31T11:13:36;16.50;99.90
23079;DHT22;11707;50.830;4.364;2022-10-31T11:16:09;16.60;99.90
23079;DHT22;11707;50.830;4.364;2022-10-31T11:18:44;16.80;99.90
23079;DHT22;11707;50.830;4.364;2022-10-31T11:21:28;16.90;99.90
23079;DHT22;11707;50.830;4.364;2022-10-31T11:24:19;16.90;99.90
23079;DHT22;11707;50.830;4.364;2022-10-31T11:26:47;17.10;99.90
23079;DHT22;11707;50.830;4.364;2022-10-31T11:29:16;17.30;99.90
23079;DHT22;11707;50.830;4.364;2022-10-31T11:31:44;17.30;99.90
23079;DHT22;11707;50.830;4.364;2022-10-31T11:34:19;17.10;99.90
23079;DHT22;11707;50.830;4.364;2022-10-31T11:36:47;16.90;99.90
23079;DHT22;11707;50.830;4.364;2022-10-31T11:39:24;16.80;99.90
23079;DHT22;11707;50.830;4.364;2022-10-31T11:41:51;16.70;99.90
23079;DHT22;11707;50.830;4.364;2022-10-31T11:44:20;16.90;99.90
23079;DHT22;11707;50.830;4.364;2022-10-31T11:47:02;16.80;99.90
23079;DHT22;11707;50.830;4.364;2022-10-31T11:49:36;16.80;99.90
23079;DHT22;11707;50.830;4.364;2022-10-31T11:52:06;16.80;99.90
23079;DHT22;11707;50.830;4.364;2022-10-31T11:54:45;16.80;99.90
23079;DHT22;11707;50.830;4.364;2022-10-31T11:59:55;17.00;99.90
23079;DHT22;11707;50.830;4.364;2022-10-31T12:02:21;17.20;99.90
23079;DHT22;11707;50.830;4.364;2022-10-31T12:04:56;17.20;99.90
23079;DHT22;11707;50.830;4.364;2022-10-31T12:07:24;17.20;99.90
23079;DHT22;11707;50.830;4.364;2022-10-31T12:09:49;17.20;99.90
23079;DHT22;11707;50.830;4.364;2022-10-31T12:20:45;17.60;99.90
23079;DHT22;11707;50.830;4.364;2022-10-31T12:23:23;17.70;99.90
23079;DHT22;11707;50.830;4.364;2022-10-31T12:26:13;17.80;99.90
23079;DHT22;11707;50.830;4.364;2022-10-31T12:42:39;18.40;99.90
23079;DHT22;11707;50.830;4.364;2022-10-31T12:47:58;18.40;99.90
23079;DHT22;11707;50.830;4.364;2022-10-31T12:50:43;18.60;99.90
23079;DHT22;11707;50.830;4.364;2022-10-31T12:59:01;19.10;99.90
23079;DHT22;11707;50.830;4.364;2022-10-31T13:01:40;19.20;99.90
23079;DHT22;11707;50.830;4.364;2022-10-31T13:04:19;19.00;99.90
23079;DHT22;11707;50.830;4.364;2022-10-31T13:06:54;19.00;99.90
23079;DHT22;11707;50.830;4.364;2022-10-31T13:09:29;18.90;99.90
23079;DHT22;11707;50.830;4.364;2022-10-31T13:12:00;18.90;99.90
23079;DHT22;11707;50.830;4.364;2022-10-31T13:14:43;19.00;99.90
23079;DHT22;11707;50.830;4.364;2022-10-31T13:20:41;18.90;99.90
23079;DHT22;11707;50.830;4.364;2022-10-31T13:23:33;19.10;99.90
23079;DHT22;11707;50.830;4.364;2022-10-31T13:26:03;19.00;99.90
23079;DHT22;11707;50.830;4.364;2022-10-31T13:31:26;19.10;99.90
23079;DHT22;11707;50.830;4.364;2022-10-31T13:33:57;19.30;99.90
23079;DHT22;11707;50.830;4.364;2022-10-31T13:36:35;20.30;99.90
23079;DHT22;11707;50.830;4.364;2022-10-31T13:44:40;22.20;99.90
23079;DHT22;11707;50.830;4.364;2022-10-31T13:47:42;22.70;99.90
23079;DHT22;11707;50.830;4.364;2022-10-31T13:50:34;22.70;99.90
23079;DHT22;11707;50.830;4.364;2022-10-31T13:56:14;23.50;99.90
23079;DHT22;11707;50.830;4.364;2022-10-31T13:58:53;24.00;99.90
23079;DHT22;11707;50.830;4.364;2022-10-31T14:01:21;23.60;99.90
23079;DHT22;11707;50.830;4.364;2022-10-31T14:09:23;21.50;99.90
23079;DHT22;11707;50.830;4.364;2022-10-31T14:11:50;20.90;99.90
23079;DHT22;11707;50.830;4.364;2022-10-31T14:14:17;20.30;99.90
23079;DHT22;11707;50.830;4.364;2022-10-31T14:16:45;20.00;99.90
23079;DHT22;11707;50.830;4.364;2022-10-31T14:19:19;19.60;99.90
23079;DHT22;11707;50.830;4.364;2022-10-31T14:21:50;19.40;99.90
23079;DHT22;11707;50.830;4.364;2022-10-31T14:27:02;19.20;99.90
23079;DHT22;11707;50.830;4.364;2022-10-31T14:29:30;19.20;99.90
23079;DHT22;11707;50.830;4.364;2022-10-31T14:31:58;19.20;99.90
23079;DHT22;11707;50.830;4.364;2022-10-31T14:34:40;19.20;99.90
23079;DHT22;11707;50.830;4.364;2022-10-31T14:37:47;19.10;99.90
23079;DHT22;11707;50.830;4.364;2022-10-31T14:51:22;19.10;99.90
23079;DHT22;11707;50.830;4.364;2022-10-31T14:53:54;19.00;99.90
23079;DHT22;11707;50.830;4.364;2022-10-31T14:56:27;18.90;99.90
23079;DHT22;11707;50.830;4.364;2022-10-31T14:59:03;18.80;99.90
23079;DHT22;11707;50.830;4.364;2022-10-31T15:01:31;18.80;99.90
23079;DHT22;11707;50.830;4.364;2022-10-31T15:04:04;18.90;99.90
23079;DHT22;11707;50.830;4.364;2022-10-31T15:06:42;19.00;99.90
23079;DHT22;11707;50.830;4.364;2022-10-31T15:09:25;19.10;99.90
23079;DHT22;11707;50.830;4.364;2022-10-31T15:11:52;18.90;99.90
23079;DHT22;11707;50.830;4.364;2022-10-31T15:14:31;18.70;99.90
23079;DHT22;11707;50.830;4.364;2022-10-31T15:16:58;18.60;99.90
23079;DHT22;11707;50.830;4.364;2022-10-31T15:19:26;18.50;99.90
23079;DHT22;11707;50.830;4.364;2022-10-31T15:21:54;18.30;99.90
23079;DHT22;11707;50.830;4.364;2022-10-31T15:24:20;18.40;99.90
23079;DHT22;11707;50.830;4.364;2022-10-31T15:26:50;18.30;99.90
23079;DHT22;11707;50.830;4.364;2022-10-31T15:29:18;18.20;99.90
23079;DHT22;11707;50.830;4.364;2022-10-31T15:32:12;18.40;99.90
23079;DHT22;11707;50.830;4.364;2022-10-31T15:34:44;18.40;99.90
23079;DHT22;11707;50.830;4.364;2022-10-31T15:37:15;18.20;99.90
23079;DHT22;11707;50.830;4.364;2022-10-31T15:39:42;18.10;99.90
23079;DHT22;11707;50.830;4.364;2022-10-31T15:42:21;18.00;99.90
23079;DHT22;11707;50.830;4.364;2022-10-31T15:44:57;18.00;99.90
23079;DHT22;11707;50.830;4.364;2022-10-31T15:47:24;18.00;99.90
23079;DHT22;11707;50.830;4.364;2022-10-31T15:49:55;18.00;99.90
23079;DHT22;11707;50.830;4.364;2022-10-31T15:52:41;18.00;99.90
23079;DHT22;11707;50.830;4.364;2022-10-31T15:55:20;18.00;99.90
23079;DHT22;11707;50.830;4.364;2022-10-31T15:57:58;17.90;99.90
23079;DHT22;11707;50.830;4.364;2022-10-31T16:00:32;17.80;99.90
23079;DHT22;11707;50.830;4.364;2022-10-31T16:08:44;17.60;99.90
23079;DHT22;11707;50.830;4.364;2022-10-31T16:13:53;17.80;99.90
23079;DHT22;11707;50.830;4.364;2022-10-31T16:16:19;17.80;99.90
23079;DHT22;11707;50.830;4.364;2022-10-31T16:18:46;17.70;99.90
23079;DHT22;11707;50.830;4.364;2022-10-31T16:21:13;17.70;99.90
23079;DHT22;11707;50.830;4.364;2022-10-31T16:23:43;17.80;99.90
23079;DHT22;11707;50.830;4.364;2022-10-31T16:26:13;17.80;99.90
23079;DHT22;11707;50.830;4.364;2022-10-31T16:28:54;17.80;99.90
23079;DHT22;11707;50.830;4.364;2022-10-31T16:31:36;17.70;99.90
23079;DHT22;11707;50.830;4.364;2022-10-31T16:34:13;17.70;99.90
23079;DHT22;11707;50.830;4.364;2022-10-31T16:36:39;17.70;99.90
23079;DHT22;11707;50.830;4.364;2022-10-31T16:39:05;17.70;99.90
23079;DHT22;11707;50.830;4.364;2022-10-31T16:41:35;17.60;99.90
23079;DHT22;11707;50.830;4.364;2022-10-31T16:44:06;17.60;99.90
23079;DHT22;11707;50.830;4.364;2022-10-31T16:46:33;17.60;99.90
23079;DHT22;11707;50.830;4.364;2022-10-31T16:48:58;17.40;99.90
23079;DHT22;11707;50.830;4.364;2022-10-31T16:51:24;17.40;99.90
23079;DHT22;11707;50.830;4.364;2022-10-31T16:53:52;17.20;99.90
23079;DHT22;11707;50.830;4.364;2022-10-31T16:56:26;17.10;99.90
23079;DHT22;11707;50.830;4.364;2022-10-31T16:58:53;17.10;99.90
23079;DHT22;11707;50.830;4.364;2022-10-31T17:01:18;17.20;99.90
23079;DHT22;11707;50.830;4.364;2022-10-31T17:03:44;17.20;99.90
23079;DHT22;11707;50.830;4.364;2022-10-31T17:06:13;17.30;99.90
23079;DHT22;11707;50.830;4.364;2022-10-31T17:08:39;17.40;99.90
23079;DHT22;11707;50.830;4.364;2022-10-31T17:11:05;17.50;99.90
23079;DHT22;11707;50.830;4.364;2022-10-31T17:13:33;17.50;99.90
23079;DHT22;11707;50.830;4.364;2022-10-31T17:16:01;17.50;99.90
23079;DHT22;11707;50.830;4.364;2022-10-31T17:18:27;17.50;99.90
23079;DHT22;11707;50.830;4.364;2022-10-31T17:20:58;17.60;99.90
23079;DHT22;11707;50.830;4.364;2022-10-31T17:23:25;17.60;99.90
23079;DHT22;11707;50.830;4.364;2022-10-31T17:25:51;17.70;99.90
23079;DHT22;11707;50.830;4.364;2022-10-31T17:28:17;17.60;99.90
23079;DHT22;11707;50.830;4.364;2022-10-31T17:30:43;17.70;99.90
23079;DHT22;11707;50.830;4.364;2022-10-31T17:33:12;17.60;99.90
23079;DHT22;11707;50.830;4.364;2022-10-31T17:35:38;17.70;99.90
23079;DHT22;11707;50.830;4.364;2022-10-31T17:38:04;17.60;99.90
23079;DHT22;11707;50.830;4.364;2022-10-31T17:40:30;17.60;99.90
23079;DHT22;11707;50.830;4.364;2022-10-31T17:42:56;17.60;99.90
23079;DHT22;11707;50.830;4.364;2022-10-31T17:45:25;17.60;99.90
23079;DHT22;11707;50.830;4.364;2022-10-31T17:47:52;17.50;99.90
23079;DHT22;11707;50.830;4.364;2022-10-31T17:50:20;17.50;99.90
23079;DHT22;11707;50.830;4.364;2022-10-31T17:52:46;17.60;99.90
23079;DHT22;11707;50.830;4.364;2022-10-31T17:55:14;17.60;99.90
23079;DHT22;11707;50.830;4.364;2022-10-31T17:57:40;17.50;99.90
23079;DHT22;11707;50.830;4.364;2022-10-31T18:00:11;17.50;99.90